Time;durP1;ratioP1;P1;durP2;ratioP2;P2;SDS_P1;SDS_P2;PMS_P1;PMS_P2;Temp;Humidity;BMP_temperature;BMP_pressure;BME280_temperature;BME280_humidity;BME280_pressure;Samples;Min_cycle;Max_cycle;Signal;HPM_P1;HPM_P2
2021/06/17 00:00:13;;;;;;;8.97;6.20;;;23.60;99.90;;;-143.32;75.01;54925.63;6135848;23;20463;-93
2021/06/17 00:02:46;;;;;;;7.53;5.77;;;23.60;99.90;;;-143.32;75.52;54923.59;6143048;23;20396;-93
2021/06/17 00:05:28;;;;;;;10.90;6.20;;;23.50;99.90;;;-143.32;75.70;54925.63;6147325;23;20411;-94
2021/06/17 00:08:02;;;;;;;10.70;6.03;;;23.40;99.90;;;-143.32;75.69;54923.59;6147506;23;20407;-93
2021/06/17 00:10:37;;;;;;;10.23;6.40;;;23.40;99.90;;;-143.32;75.77;54943.81;6144795;23;20435;-92
2021/06/17 00:13:15;;;;;;;9.93;6.10;;;23.40;1.00;;;-143.32;75.67;54927.66;6147036;23;20403;-93
2021/06/17 00:15:55;;;;;;;10.57;6.40;;;23.30;1.00;;;-143.32;75.73;54941.78;6147876;23;20442;-92
2021/06/17 00:18:38;;;;;;;9.00;5.97;;;23.20;1.00;;;-143.32;74.43;54962.00;6149818;23;20443;-91
2021/06/17 00:21:20;;;;;;;7.20;5.97;;;23.30;99.90;;;-143.32;73.20;54966.03;6147480;23;20412;-91
2021/06/17 00:23:53;;;;;;;6.33;5.70;;;23.40;99.90;;;-143.32;73.29;54992.31;6147239;23;20442;-93
2021/06/17 00:26:24;;;;;;;9.67;5.80;;;23.30;99.90;;;-143.32;73.01;54982.22;6146617;23;20387;-93
2021/06/17 00:28:52;;;;;;;12.83;5.60;;;23.40;99.90;;;-143.32;73.80;54929.66;6144038;23;20442;-93
2021/06/17 00:31:25;;;;;;;7.00;6.20;;;23.40;99.90;;;-143.32;74.12;54943.81;6145351;23;20438;-93
2021/06/17 00:33:53;;;;;;;7.40;5.57;;;23.40;99.90;;;-143.32;74.07;54968.06;6143257;23;20407;-91
2021/06/17 00:36:22;;;;;;;6.27;5.67;;;23.30;99.90;;;-143.32;73.16;55004.44;6142552;23;20411;-92
2021/06/17 00:38:51;;;;;;;10.30;5.77;;;23.30;99.90;;;-143.32;73.34;54966.03;6141363;23;20431;-92
2021/06/17 00:41:31;;;;;;;8.73;5.50;;;23.30;99.90;;;-143.32;74.18;54959.97;6141508;23;20894;-92
2021/06/17 00:43:58;;;;;;;8.00;6.00;;;23.30;99.90;;;-143.32;73.57;54937.75;6141760;23;20391;-93
2021/06/17 00:46:31;;;;;;;11.10;5.53;;;23.20;99.90;;;-143.32;73.58;54994.34;6144169;23;20421;-92
2021/06/17 00:49:01;;;;;;;7.10;5.70;;;23.20;99.90;;;-143.32;74.04;54978.16;6145128;23;20403;-94
2021/06/17 00:51:33;;;;;;;9.20;6.37;;;23.20;99.90;;;-143.32;73.42;54990.28;6120902;23;20414;-93
2021/06/17 00:54:00;;;;;;;10.33;6.13;;;23.20;99.90;;;-143.32;73.13;54990.28;6146269;23;20487;-93
2021/06/17 00:56:32;;;;;;;9.43;6.07;;;23.20;99.90;;;-143.32;73.19;55004.44;6146932;23;20431;-93
2021/06/17 00:59:00;;;;;;;8.50;5.73;;;23.20;99.90;;;-143.32;73.14;54982.22;6146673;23;20450;-92
2021/06/17 01:01:27;;;;;;;9.33;6.70;;;23.10;99.90;;;-143.32;72.91;55004.44;6146165;23;20407;-91
2021/06/17 01:04:01;;;;;;;21.93;6.10;;;23.20;99.90;;;-143.32;74.17;55004.44;6131432;23;20730;-91
2021/06/17 01:06:33;;;;;;;10.57;5.53;;;23.20;99.90;;;-143.32;73.26;55006.47;6131361;23;20399;-92
2021/06/17 01:09:10;;;;;;;8.10;5.83;;;23.10;99.90;;;-143.32;72.78;55034.75;6132741;23;20460;-92
2021/06/17 01:11:56;;;;;;;11.53;5.80;;;23.10;99.90;;;-143.32;72.57;55004.44;6150702;23;20415;-93
2021/06/17 01:14:29;;;;;;;5.93;5.33;;;23.10;99.90;;;-143.32;73.10;54994.34;6150642;23;20487;-93
2021/06/17 01:17:04;;;;;;;11.40;5.30;;;23.10;99.90;;;-143.32;74.84;54998.38;6150487;23;20396;-91
2021/06/17 01:19:57;;;;;;;8.77;5.20;;;23.10;99.90;;;-143.32;74.98;54980.19;6149276;23;20470;-91
2021/06/17 01:22:53;;;;;;;8.67;5.90;;;23.00;99.90;;;-143.32;75.87;54988.28;6145941;23;20422;-94
2021/06/17 01:31:37;;;;;;;7.97;6.20;;;22.70;1.00;;;-143.32;76.00;55014.53;6148246;23;20399;-93
2021/06/17 01:34:17;;;;;;;6.60;5.70;;;22.60;1.00;;;-143.32;76.54;55000.41;6148058;23;20395;-94
2021/06/17 01:37:00;;;;;;;8.67;6.30;;;22.60;1.00;;;-143.32;76.99;55002.41;6123839;23;20412;-93
2021/06/17 01:39:46;;;;;;;10.20;5.93;;;22.50;1.00;;;-143.32;76.91;54996.34;6146296;23;20443;-93
2021/06/17 01:42:18;;;;;;;8.37;5.50;;;22.50;1.00;;;-143.32;75.62;55010.50;6122232;23;20400;-93
2021/06/17 01:48:23;;;;;;;7.90;6.20;;;22.50;99.90;;;-143.32;75.47;55004.44;6148192;23;20417;-91
2021/06/17 01:51:03;;;;;;;6.97;5.70;;;22.50;99.90;;;-143.32;74.76;55048.88;6142627;23;20416;-92
2021/06/17 01:53:33;;;;;;;7.77;5.67;;;22.50;99.90;;;-143.32;75.67;55022.63;6143428;23;20415;-93
2021/06/17 01:56:05;;;;;;;6.83;5.23;;;22.50;99.90;;;-143.32;75.37;55042.84;6140802;23;20545;-91
2021/06/17 01:58:34;;;;;;;8.67;6.00;;;22.50;99.90;;;-143.32;75.95;55028.69;6143326;23;20485;-92
2021/06/17 02:01:04;;;;;;;6.30;5.57;;;22.50;1.00;;;-143.32;74.51;55056.97;6140674;23;20400;-94
2021/06/17 02:03:34;;;;;;;8.40;5.20;;;22.50;99.90;;;-143.32;74.34;55050.91;6140197;23;20404;-92
2021/06/17 02:06:03;;;;;;;12.63;5.03;;;22.50;99.90;;;-143.32;73.71;55042.84;6141163;23;20412;-92
2021/06/17 02:08:31;;;;;;;7.57;5.50;;;22.60;99.90;;;-143.32;73.73;55056.97;6142265;23;20408;-92
2021/06/17 02:11:10;;;;;;;8.03;6.17;;;22.60;99.90;;;-143.32;73.39;55032.72;6141821;23;20422;-93
2021/06/17 02:13:38;;;;;;;8.50;5.60;;;22.60;99.90;;;-143.32;73.34;55016.56;6143191;23;20441;-93
2021/06/17 02:16:08;;;;;;;6.47;5.30;;;22.60;99.90;;;-143.32;73.37;55038.78;6142605;23;20438;-93
2021/06/17 02:18:38;;;;;;;8.47;5.80;;;22.60;99.90;;;-143.32;73.21;55002.41;6142949;23;20474;-92
2021/06/17 02:21:18;;;;;;;11.23;6.00;;;22.60;99.90;;;-143.32;73.50;55063.03;6144610;23;20419;-93
2021/06/17 02:23:52;;;;;;;11.60;5.80;;;22.60;99.90;;;-143.32;73.25;55059.00;6146667;23;20403;-94
2021/06/17 02:26:28;;;;;;;6.40;5.40;;;22.50;99.90;;;-143.32;73.67;55040.81;6145937;23;20443;-93
2021/06/17 02:29:01;;;;;;;8.37;6.33;;;22.60;99.90;;;-143.32;73.50;55061.00;6147154;23;20398;-91
2021/06/17 02:31:38;;;;;;;12.30;6.00;;;22.60;99.90;;;-143.32;73.73;55054.94;6147883;23;20372;-93
2021/06/17 02:34:32;;;;;;;8.50;5.53;;;22.70;99.90;;;-143.32;73.40;55079.19;6149047;23;20715;-92
2021/06/17 02:37:12;;;;;;;6.30;5.70;;;22.70;99.90;;;-143.32;73.68;55044.84;6148690;23;20408;-93
2021/06/17 02:42:44;;;;;;;8.73;5.30;;;22.50;99.90;;;-143.32;73.81;55081.22;6146800;23;20416;-92
2021/06/17 02:45:28;;;;;;;7.33;5.63;;;22.40;99.90;;;-143.32;73.38;55063.03;6147034;23;20411;-92
2021/06/17 02:48:04;;;;;;;6.40;5.27;;;22.40;99.90;;;-143.32;73.39;55097.38;6116455;23;20436;-92
2021/06/17 02:50:46;;;;;;;5.70;4.83;;;22.30;99.90;;;-143.32;73.59;55089.31;6142038;23;20935;-93
2021/06/17 02:53:13;;;;;;;11.17;5.50;;;22.40;99.90;;;-143.32;73.16;55093.34;6140842;23;20450;-92
2021/06/17 02:55:48;;;;;;;8.20;6.00;;;22.40;99.90;;;-143.32;73.22;55071.13;6140410;23;20704;-93
2021/06/17 02:58:52;;;;;;;9.57;5.67;;;22.40;99.90;;;-143.32;73.50;55083.25;6143239;23;20410;-92
2021/06/17 03:01:38;;;;;;;6.70;5.77;;;22.40;99.90;;;-143.32;73.59;55061.00;6143957;23;20511;-91
2021/06/17 03:04:20;;;;;;;10.13;5.63;;;22.40;99.90;;;-143.32;73.79;55105.47;6144626;23;20436;-93
2021/06/17 03:07:05;;;;;;;7.30;5.60;;;22.40;99.90;;;-143.32;73.81;55093.34;6144030;23;20482;-91
2021/06/17 03:09:57;;;;;;;11.20;5.60;;;22.30;99.90;;;-143.32;73.87;55071.13;6144973;23;20474;-92
2021/06/17 03:19:03;;;;;;;8.33;5.90;;;22.30;99.90;;;-143.32;74.09;55099.41;6146924;23;20467;-91
2021/06/17 03:21:51;;;;;;;7.23;6.00;;;22.30;99.90;;;-143.32;73.99;55109.50;6148990;23;20431;-91
2021/06/17 03:24:38;;;;;;;9.63;6.03;;;22.30;99.90;;;-143.32;73.94;55067.06;6123146;23;20408;-93
2021/06/17 03:27:10;;;;;;;7.90;5.60;;;22.30;99.90;;;-143.32;73.95;55087.28;6147879;23;20396;-93
2021/06/17 03:29:52;;;;;;;7.40;4.77;;;22.30;99.90;;;-143.32;73.98;55073.13;6148835;23;20376;-93
2021/06/17 03:32:29;;;;;;;7.37;5.97;;;22.30;99.90;;;-143.32;74.13;55067.06;6145952;23;20411;-92
2021/06/17 03:38:46;;;;;;;6.10;5.20;;;22.20;99.90;;;-143.32;74.63;55097.38;6144794;23;20418;-92
2021/06/17 03:41:17;;;;;;;6.73;5.60;;;22.20;99.90;;;-143.32;74.28;55091.31;6146180;23;20411;-92
2021/06/17 03:51:16;;;;;;;9.93;5.70;;;22.10;99.90;;;-143.32;74.99;55093.34;6114986;23;20397;-94
2021/06/17 03:54:01;;;;;;;11.37;5.70;;;22.20;99.90;;;-143.32;74.41;55095.38;6115124;23;20459;-93
2021/06/17 03:56:42;;;;;;;6.87;4.93;;;22.20;99.90;;;-143.32;74.10;55085.25;6117616;23;20385;-93
2021/06/17 03:59:20;;;;;;;8.70;5.40;;;22.20;99.90;;;-143.32;74.00;55089.31;6118953;23;20443;-92
2021/06/17 04:01:55;;;;;;;8.20;5.40;;;22.30;99.90;;;-143.32;73.51;55091.31;6143765;23;20486;-93
2021/06/17 04:07:22;;;;;;;7.20;4.97;;;22.30;99.90;;;-143.32;73.30;55107.50;6171755;23;20466;-91
2021/06/17 04:09:54;;;;;;;8.10;5.53;;;22.40;99.90;;;-143.32;73.27;55117.59;6169740;23;20446;-92
2021/06/17 04:12:30;;;;;;;5.73;4.90;;;22.40;99.90;;;-143.32;73.28;55081.22;6172773;23;20411;-91
2021/06/17 04:15:01;;;;;;;8.10;5.33;;;22.40;99.90;;;-143.32;72.78;55067.06;6171529;23;20375;-93
2021/06/17 04:21:28;;;;;;;8.80;5.00;;;22.50;99.90;;;-143.32;72.61;55085.25;6165051;23;20413;-93
2021/06/17 04:23:59;;;;;;;15.20;5.60;;;22.60;99.90;;;-143.32;72.65;55079.19;6170033;23;20412;-94
2021/06/17 04:26:34;;;;;;;7.80;5.47;;;22.60;99.90;;;-143.32;72.46;55089.31;6176171;23;20402;-91
2021/06/17 04:29:17;;;;;;;12.03;5.20;;;22.60;99.90;;;-143.32;72.32;55077.19;6175692;23;20408;-92
2021/06/17 04:34:51;;;;;;;5.93;4.80;;;22.70;97.50;;;-143.32;72.10;55059.00;6176538;23;20436;-92
2021/06/17 04:37:23;;;;;;;6.77;4.97;;;22.70;96.60;;;-143.32;71.91;55093.34;6168392;23;20406;-91
2021/06/17 04:40:27;;;;;;;9.60;5.27;;;22.80;31.20;;;-143.32;71.59;55069.09;6176452;23;20457;-92
2021/06/17 04:43:00;;;;;;;8.97;5.70;;;22.80;24.90;;;-143.32;71.49;55089.31;6159952;23;20410;-91
2021/06/17 04:45:30;;;;;;;8.93;4.80;;;22.90;2.40;;;-143.32;71.41;55099.41;6166996;23;20458;-92
2021/06/17 04:48:07;;;;;;;10.10;5.30;;;22.90;1.00;;;-143.32;71.38;55075.16;6166360;23;20391;-91
2021/06/17 04:50:40;;;;;;;9.50;5.10;;;23.00;1.00;;;-143.32;71.21;55075.16;6169354;23;20433;-93
2021/06/17 04:53:15;;;;;;;10.37;6.03;;;23.00;1.00;;;-143.32;71.00;55075.16;6174721;23;20410;-93
2021/06/17 04:55:52;;;;;;;12.63;4.90;;;23.10;1.00;;;-143.32;70.81;55065.06;6174764;23;20426;-93
2021/06/17 04:58:27;;;;;;;6.30;4.63;;;23.10;1.00;;;-143.32;70.88;55067.06;6174434;23;20378;-93
2021/06/17 05:00:56;;;;;;;8.10;5.57;;;23.20;1.00;;;-143.32;70.40;55085.25;6170898;23;20434;-95
2021/06/17 05:03:28;;;;;;;9.80;5.23;;;23.20;1.00;;;-143.32;70.25;55101.44;6143965;23;20470;-94
2021/06/17 05:06:03;;;;;;;8.37;4.80;;;23.30;1.00;;;-143.32;70.30;55079.19;6171399;23;20406;-96
2021/06/17 05:18:58;;;;;;;18.73;5.30;;;23.70;1.00;;;-143.32;68.51;55071.13;6091195;23;20397;-93
2021/06/17 05:21:30;;;;;;;8.20;4.60;;;23.70;1.00;;;-143.32;68.16;55101.44;6166865;23;20418;-92
2021/06/17 05:23:58;;;;;;;6.33;4.83;;;23.80;1.00;;;-143.32;67.95;55077.19;6164433;23;20732;-92
2021/06/17 05:26:25;;;;;;;15.70;5.03;;;23.90;1.00;;;-143.32;67.65;55089.31;6169019;23;20402;-92
2021/06/17 05:28:53;;;;;;;9.37;4.67;;;24.10;1.00;;;-143.32;67.28;55071.13;6168683;23;20783;-91
2021/06/17 05:31:23;;;;;;;13.43;5.20;;;24.10;1.00;;;-143.32;67.07;55044.84;6167629;23;20438;-93
2021/06/17 05:33:51;;;;;;;8.90;5.30;;;24.20;99.90;;;-143.32;66.55;55038.78;6168714;23;20429;-91
2021/06/17 05:36:20;;;;;;;9.40;4.57;;;24.30;99.90;;;-143.32;66.19;55067.06;6167587;23;20406;-91
2021/06/17 05:38:48;;;;;;;10.43;4.97;;;24.50;99.90;;;-143.32;65.58;55077.19;6166506;23;20407;-92
2021/06/17 05:41:20;;;;;;;10.60;4.57;;;24.50;99.90;;;-143.32;65.05;55052.94;6169494;23;20470;-93
2021/06/17 05:44:11;;;;;;;18.20;5.10;;;24.70;99.90;;;-143.32;64.21;55022.63;6173322;23;20458;-93
2021/06/17 06:00:22;;;;;;;13.40;4.40;;;26.10;99.90;;;-143.32;54.75;55026.66;6097703;23;20461;-92
2021/06/17 06:06:35;;;;;;;6.00;4.10;;;27.30;99.90;;;-143.32;50.04;55002.41;6177682;23;20475;-92
2021/06/17 06:09:27;;;;;;;7.90;4.27;;;27.90;52.90;;;-143.32;48.65;54972.09;6177707;23;20394;-93
2021/06/17 06:12:16;;;;;;;6.53;3.83;;;28.40;1.00;;;-143.32;46.58;54982.22;6172981;23;20410;-92
2021/06/17 06:14:46;;;;;;;11.43;4.13;;;28.70;1.00;;;-143.32;46.22;54978.16;6157441;23;20853;-92
2021/06/17 06:23:58;;;;;;;5.93;4.10;;;29.50;1.00;;;-143.32;42.35;55014.53;6114553;23;20510;-92
2021/06/17 06:26:29;;;;;;;14.90;4.33;;;29.60;1.00;;;-143.32;42.69;55010.50;6114446;23;20195;-92
2021/06/17 06:29:27;;;;;;;;;;;;;;;;;;;;;
2021/06/17 06:36:38;;;;;;;5.80;4.13;;;29.30;1.00;;;-143.32;42.71;55000.41;6111162;23;20372;-92
2021/06/17 06:39:32;;;;;;;10.33;3.80;;;29.40;1.00;;;-143.32;41.56;55006.47;6116102;23;20542;-92
2021/06/17 06:42:03;;;;;;;4.90;4.17;;;29.70;1.00;;;-143.32;40.96;55026.66;6112704;23;20423;-92
2021/06/17 06:49:00;;;;;;;6.97;3.43;;;29.90;1.00;;;-143.32;39.43;55002.41;6115281;23;20297;-92
2021/06/17 06:51:44;;;;;;;21.13;4.43;;;30.20;1.00;;;-143.32;39.05;54972.09;6115141;23;20192;-91
2021/06/17 07:04:08;;;;;;;7.77;4.20;;;30.50;1.00;;;-143.32;38.76;54990.28;6134687;23;20218;-93
2021/06/17 07:06:41;;;;;;;10.87;4.57;;;30.60;1.00;;;-143.32;38.52;54964.03;6133720;23;20164;-93
2021/06/17 07:09:30;;;;;;;17.03;5.80;;;30.80;1.00;;;-143.32;38.30;54990.28;6127872;23;20194;-92
2021/06/17 07:29:48;;;;;;;12.73;4.45;;;32.00;1.00;;;-143.32;34.28;55046.88;6106594;23;20691;-93
2021/06/17 08:22:03;;;;;;;8.05;4.45;;;33.90;58.10;;;-143.32;31.06;55063.03;6112662;23;20211;-92
2021/06/17 08:24:53;;;;;;;;;;;;;;;;;;;;;
2021/06/17 08:39:38;;;;;;;8.10;2.83;;;34.10;99.90;;;-143.32;29.54;55184.28;5946585;24;20299;-90
2021/06/17 08:58:24;;;;;;;5.68;3.20;;;34.90;99.90;;;-143.32;28.16;55352.00;6125360;23;20210;-91
2021/06/17 11:45:17;;;;;;;;;;;;;;;;;;;;;
2021/06/17 12:18:13;;;;;;;4.78;3.17;;;33.70;99.90;;;-143.32;29.38;55740.03;6101960;23;20207;-91
2021/06/17 12:28:42;;;;;;;5.95;3.13;;;34.10;99.90;;;-143.32;29.71;55705.69;5981439;24;20676;-91
2021/06/17 12:31:40;;;;;;;8.25;4.13;;;34.30;99.90;;;-143.32;28.91;55764.31;5984253;23;20179;-92
2021/06/17 12:34:19;;;;;;;6.35;2.60;;;34.60;99.90;;;-143.32;28.80;55766.31;5984640;24;20232;-90
2021/06/17 12:37:09;;;;;;;7.95;3.30;;;34.50;1.00;;;-143.32;29.08;55733.97;5983664;24;20191;-91
2021/06/17 12:39:40;;;;;;;13.95;3.90;;;34.40;1.00;;;-143.32;29.45;55723.88;5984259;24;20172;-91
2021/06/17 12:42:27;;;;;;;4.30;3.10;;;34.30;99.90;;;-143.32;29.91;55695.56;6085664;23;20644;-92
2021/06/17 12:44:55;;;;;;;3.65;3.17;;;34.10;99.90;;;-143.32;29.93;55701.66;6099943;23;20195;-91
2021/06/17 12:47:30;;;;;;;4.95;3.20;;;34.10;99.90;;;-143.32;29.94;55685.47;6100154;23;20240;-90
2021/06/17 12:57:45;;;;;;;6.63;3.55;;;34.10;99.90;;;-143.32;29.95;55705.69;5986365;24;20516;-92
2021/06/17 13:00:31;;;;;;;10.00;3.30;;;34.20;99.90;;;-143.32;29.52;55725.91;6050110;23;20200;-91
2021/06/17 13:03:01;;;;;;;5.68;3.20;;;34.50;99.90;;;-143.32;29.42;55713.78;6101944;23;20161;-91
2021/06/17 13:05:47;;;;;;;7.22;3.78;;;34.80;99.90;;;-143.32;29.78;55711.75;6099088;23;20512;-89
2021/06/17 13:08:14;;;;;;;7.97;3.47;;;34.60;99.90;;;-143.32;30.11;55727.91;6099136;23;20196;-91
2021/06/17 13:10:46;;;;;;;4.90;3.53;;;34.10;99.90;;;-143.32;30.29;55687.50;6100336;23;20480;-91
2021/06/17 13:13:22;;;;;;;7.18;3.58;;;34.00;99.90;;;-143.32;30.35;55693.56;6101982;23;20196;-92
2021/06/17 13:19:29;;;;;;;6.95;3.53;;;34.10;99.90;;;-143.32;30.13;55707.72;6122502;23;20181;-91
2021/06/17 13:22:01;;;;;;;8.77;4.25;;;34.20;99.90;;;-143.32;30.77;55689.50;6128441;23;20207;-91
2021/06/17 13:24:29;;;;;;;4.85;3.78;;;34.20;99.90;;;-143.32;30.35;55697.59;6128567;23;20164;-90
2021/06/17 13:27:13;;;;;;;12.68;4.18;;;34.30;99.90;;;-143.32;30.42;55675.38;6128589;23;20242;-92
2021/06/17 13:29:51;;;;;;;3.80;3.50;;;34.40;99.90;;;-143.32;30.26;55719.84;6128704;23;20574;-90
2021/06/17 13:32:19;;;;;;;7.63;3.78;;;34.40;99.90;;;-143.32;29.75;55770.34;6129496;23;20222;-90
2021/06/17 13:34:46;;;;;;;4.07;3.33;;;34.40;99.90;;;-143.32;30.09;55750.16;6128597;23;20179;-90
2021/06/17 13:37:18;;;;;;;12.93;3.88;;;34.40;99.90;;;-143.32;30.22;55707.72;6128007;23;20187;-89
2021/06/17 13:39:46;;;;;;;4.75;3.55;;;34.10;99.90;;;-143.32;30.82;55701.66;6127789;23;20187;-90
2021/06/17 13:42:14;;;;;;;17.45;3.50;;;34.40;99.90;;;-143.32;30.47;55725.91;6128883;23;20254;-88
2021/06/17 13:44:58;;;;;;;9.18;3.38;;;34.30;99.90;;;-143.32;30.53;55738.03;6136112;23;20171;-89
2021/06/17 13:51:11;;;;;;;5.93;3.72;;;34.30;99.90;;;-143.32;30.50;55713.78;6127805;23;20159;-88
2021/06/17 13:53:43;;;;;;;12.95;4.05;;;34.10;99.90;;;-143.32;30.66;55748.13;6127601;23;20235;-88
2021/06/17 13:56:13;;;;;;;10.32;4.05;;;34.10;99.90;;;-143.32;31.04;55711.75;6128075;23;20183;-88
2021/06/17 13:58:40;;;;;;;5.57;3.80;;;33.80;99.90;;;-143.32;31.41;55685.47;6127838;23;20170;-91
2021/06/17 14:01:10;;;;;;;13.05;4.57;;;33.60;99.90;;;-143.32;31.38;55764.31;6127570;23;20230;-90
2021/06/17 14:03:37;;;;;;;8.48;4.10;;;33.60;99.90;;;-143.32;30.71;55770.34;6127645;23;20254;-88
2021/06/17 14:06:08;;;;;;;9.82;4.40;;;33.80;99.90;;;-143.32;30.52;55752.16;6127442;23;20187;-91
2021/06/17 14:08:43;;;;;;;16.30;4.07;;;34.20;99.90;;;-143.32;30.41;55744.09;6127911;23;20492;-93
2021/06/17 14:14:52;;;;;;;9.18;4.75;;;34.30;99.90;;;-143.32;30.91;55768.34;6143576;23;20206;-93
2021/06/17 14:17:26;;;;;;;12.35;4.40;;;34.30;99.90;;;-143.32;30.96;55740.03;6143035;23;20251;-92
2021/06/17 14:19:56;;;;;;;10.85;4.47;;;34.20;99.90;;;-143.32;31.17;55748.13;6132444;23;20210;-91
2021/06/17 14:22:26;;;;;;;9.27;4.20;;;34.10;99.90;;;-143.32;30.97;55711.75;6128466;23;20640;-92
2021/06/17 14:28:35;;;;;;;7.00;4.75;;;34.20;99.90;;;-143.32;30.48;55800.69;6127965;23;20219;-92
2021/06/17 14:31:03;;;;;;;6.07;4.03;;;34.40;99.90;;;-143.32;30.55;55756.22;6127763;23;20714;-93
2021/06/17 14:33:30;;;;;;;9.32;4.35;;;34.40;99.90;;;-143.32;30.40;55780.47;6127981;23;20238;-92
2021/06/17 14:35:57;;;;;;;8.60;4.75;;;34.40;99.90;;;-143.32;30.58;55794.63;6127391;23;20179;-90
2021/06/17 14:38:25;;;;;;;17.55;5.55;;;34.40;99.90;;;-143.32;30.75;55723.88;6127014;23;20258;-91
2021/06/17 14:44:36;;;;;;;11.15;5.07;;;34.40;99.90;;;-143.32;31.66;55715.78;6127370;23;20595;-92
2021/06/17 14:47:04;;;;;;;9.93;5.18;;;34.20;99.90;;;-143.32;31.30;55723.88;6127303;23;20167;-91
2021/06/17 14:49:32;;;;;;;5.20;4.50;;;34.30;99.90;;;-143.32;31.24;55733.97;6127112;23;20207;-90
2021/06/17 14:52:01;;;;;;;10.77;4.47;;;34.40;99.90;;;-143.32;30.91;55740.03;6127859;23;20179;-93
2021/06/17 14:58:10;;;;;;;8.25;4.80;;;34.70;99.90;;;-143.32;31.23;55727.91;6127342;23;20155;-92
2021/06/17 15:00:43;;;;;;;8.30;4.93;;;34.80;99.90;;;-143.32;31.67;55711.75;6127172;23;20209;-92
2021/06/17 15:06:38;;;;;;;11.88;5.25;;;34.50;99.90;;;-143.32;31.05;55756.22;6145262;23;20278;-92
2021/06/17 15:24:11;;;;;;;19.27;5.22;;;34.50;99.90;;;-143.32;31.50;55760.25;6026004;23;20207;-93
2021/06/17 15:26:44;;;;;;;9.48;4.85;;;34.60;99.90;;;-143.32;31.86;55744.09;6028638;23;20200;-94
2021/06/17 15:29:58;;;;;;;9.98;4.07;;;34.50;99.90;;;-143.32;31.45;55784.50;6033254;23;20190;-94
2021/06/17 15:43:57;;;;;;;5.65;3.72;;;34.50;99.90;;;-143.32;31.99;55752.16;6096729;23;20210;-89
2021/06/17 16:22:40;;;;;;;6.93;4.03;;;33.10;74.80;;;-143.32;34.87;55713.78;6116597;23;20213;-92
2021/06/17 17:26:57;;;;;;;5.95;2.83;;;32.20;1.00;;;-143.32;37.37;55707.72;6146290;23;20199;-92
2021/06/17 17:29:25;;;;;;;11.63;3.20;;;32.10;1.00;;;-143.32;37.08;55715.78;6145949;23;20187;-93
2021/06/17 17:32:50;;;;;;;9.47;3.47;;;32.20;1.00;;;-143.32;37.59;55744.09;6140511;23;20177;-93
2021/06/17 18:50:29;;;;;;;10.33;2.80;;;30.20;99.90;;;-143.32;43.60;55695.56;6131799;23;20159;-92
2021/06/17 18:53:11;;;;;;;5.77;2.70;;;30.10;99.90;;;-143.32;45.11;55667.28;6128777;23;20239;-93
2021/06/17 18:56:10;;;;;;;5.93;2.63;;;30.10;99.90;;;-143.32;45.91;55671.31;6131793;23;20179;-94
2021/06/17 18:58:44;;;;;;;6.57;2.80;;;30.00;1.00;;;-143.32;45.08;55659.19;6144155;23;20160;-92
2021/06/17 19:01:22;;;;;;;16.37;2.83;;;30.00;99.90;;;-143.32;45.31;55653.13;6140014;23;20226;-92
2021/06/17 19:03:53;;;;;;;10.60;2.57;;;30.00;99.90;;;-143.32;45.34;55673.34;6132608;23;20246;-92
2021/06/17 19:06:36;;;;;;;10.03;3.17;;;30.00;99.90;;;-143.32;46.03;55677.38;6128854;23;20195;-93
2021/06/17 19:09:04;;;;;;;8.27;3.40;;;29.90;99.90;;;-143.32;46.84;55649.09;6129193;23;20183;-92
2021/06/17 19:11:34;;;;;;;8.33;2.70;;;29.80;99.90;;;-143.32;46.94;55641.00;6130473;23;20230;-93
2021/06/17 19:14:05;;;;;;;6.47;3.77;;;29.90;99.90;;;-143.32;47.28;55663.25;6133788;23;20175;-92
2021/06/17 19:16:33;;;;;;;5.20;2.00;;;29.70;1.00;;;-143.32;47.18;55647.06;6133422;23;20171;-93
2021/06/17 19:19:00;;;;;;;7.40;2.80;;;29.60;99.90;;;-143.32;47.87;55604.63;6133473;23;20276;-94
2021/06/17 19:25:15;;;;;;;4.87;2.50;;;29.40;99.90;;;-143.32;48.73;55649.09;6130928;23;20175;-90
2021/06/17 19:31:26;;;;;;;8.80;3.00;;;29.30;99.90;;;-143.32;49.39;55661.22;6127594;23;20159;-89
2021/06/17 19:33:55;;;;;;;8.40;2.70;;;29.20;99.90;;;-143.32;48.83;55630.91;6127108;23;20481;-89
2021/06/17 19:36:29;;;;;;;7.20;2.47;;;29.10;99.90;;;-143.32;49.60;55618.78;6136210;23;20207;-91
2021/06/17 19:39:01;;;;;;;6.17;2.47;;;29.00;99.90;;;-143.32;50.77;55616.75;6135016;23;20176;-88
2021/06/17 19:41:51;;;;;;;12.53;2.80;;;29.00;99.90;;;-143.32;50.28;55624.84;6127026;23;20930;-92
2021/06/17 19:44:19;;;;;;;8.60;2.93;;;28.80;99.90;;;-143.32;51.76;55620.81;6126445;23;20191;-89
2021/06/17 19:46:47;;;;;;;7.57;2.60;;;28.70;99.90;;;-143.32;51.41;55632.94;6126819;23;20270;-89
2021/06/17 19:49:14;;;;;;;6.03;2.40;;;28.70;99.90;;;-143.32;52.32;55614.75;6126591;23;20470;-89
2021/06/17 19:55:37;;;;;;;5.80;2.63;;;28.40;99.90;;;-143.32;52.97;55636.97;6041119;23;20458;-88
2021/06/17 19:58:06;;;;;;;9.40;2.60;;;28.40;99.90;;;-143.32;53.52;55610.69;6127634;23;20478;-90
2021/06/17 20:00:33;;;;;;;7.13;2.77;;;28.30;1.00;;;-143.32;54.10;55626.88;6126905;23;20180;-89
2021/06/17 20:03:09;;;;;;;12.73;2.70;;;28.20;99.90;;;-143.32;54.26;55612.72;6126365;23;20506;-89
2021/06/17 20:05:36;;;;;;;25.63;3.20;;;28.20;1.00;;;-143.32;54.58;55610.69;6127048;23;20438;-88
2021/06/17 20:08:16;;;;;;;13.63;2.50;;;28.10;1.00;;;-143.32;54.86;55606.66;6127468;23;20415;-94
2021/06/17 20:10:44;;;;;;;5.43;2.40;;;27.90;1.00;;;-143.32;55.14;55618.78;6127247;23;20395;-92
2021/06/17 20:13:21;;;;;;;9.27;2.70;;;28.00;1.00;;;-143.32;56.05;55616.75;6130481;23;20490;-89
2021/06/17 20:15:48;;;;;;;5.20;2.60;;;28.00;1.00;;;-143.32;56.88;55600.59;6128051;23;20395;-89
2021/06/17 20:18:15;;;;;;;6.90;2.37;;;27.80;1.00;;;-143.32;57.78;55602.59;6127567;23;20458;-88
2021/06/17 20:24:24;;;;;;;10.53;3.10;;;27.70;1.00;;;-143.32;59.28;55588.47;6126655;23;20382;-90
2021/06/17 20:26:58;;;;;;;6.87;3.17;;;27.60;1.00;;;-143.32;59.43;55588.47;6132605;23;20894;-93
2021/06/17 20:29:27;;;;;;;9.60;3.10;;;27.60;1.00;;;-143.32;60.07;55570.28;6129458;23;20383;-89
2021/06/17 20:31:54;;;;;;;6.83;2.80;;;27.60;1.00;;;-143.32;60.74;55556.13;6126419;23;20403;-88
2021/06/17 20:34:30;;;;;;;8.33;2.83;;;27.60;1.00;;;-143.32;61.56;55539.97;6129470;23;20411;-92
2021/06/17 20:37:00;;;;;;;8.90;2.87;;;27.50;1.00;;;-143.32;62.30;55539.97;6128196;23;20454;-92
2021/06/17 20:39:28;;;;;;;4.37;2.60;;;27.40;25.90;;;-143.32;62.80;55519.75;6128477;23;20458;-90
2021/06/17 20:41:56;;;;;;;6.93;2.87;;;27.40;66.10;;;-143.32;62.99;55513.69;6127017;23;20450;-90
2021/06/17 20:44:23;;;;;;;9.73;3.53;;;27.40;92.30;;;-143.32;63.45;55525.81;6127959;23;20411;-93
2021/06/17 20:46:52;;;;;;;6.10;3.30;;;27.50;99.90;;;-143.32;63.46;55503.59;6128851;23;20450;-93
2021/06/17 20:49:22;;;;;;;7.47;2.93;;;27.40;99.90;;;-143.32;63.91;55544.00;6127676;23;20395;-89
2021/06/17 20:51:50;;;;;;;8.83;3.30;;;27.30;99.90;;;-143.32;64.00;55489.44;6128467;23;20392;-92
2021/06/17 20:54:29;;;;;;;7.40;3.13;;;27.50;99.90;;;-143.32;64.76;55495.50;6129522;23;20395;-93
2021/06/17 20:56:56;;;;;;;6.37;3.10;;;27.40;99.90;;;-143.32;65.08;55489.44;6129526;23;20910;-93
2021/06/17 20:59:24;;;;;;;3.70;2.97;;;27.40;99.90;;;-143.32;65.25;55495.50;6129426;23;20411;-91
2021/06/17 21:01:53;;;;;;;10.93;3.90;;;27.40;99.90;;;-143.32;65.46;55511.66;6129507;23;20451;-92
2021/06/17 21:04:22;;;;;;;12.63;3.50;;;27.40;99.90;;;-143.32;66.37;55457.09;6130210;23;20411;-91
2021/06/17 21:06:50;;;;;;;16.00;4.07;;;27.40;99.90;;;-143.32;66.90;55473.28;6128347;23;20407;-89
2021/06/17 21:09:17;;;;;;;11.77;3.80;;;27.40;99.90;;;-143.32;67.36;55471.25;6127956;23;20403;-89
2021/06/17 21:11:44;;;;;;;7.50;3.30;;;27.30;99.90;;;-143.32;67.67;55463.16;6127888;23;20408;-89
2021/06/17 21:14:11;;;;;;;18.97;3.97;;;27.30;1.00;;;-143.32;68.14;55436.88;6127633;23;20743;-89
2021/06/17 21:16:39;;;;;;;20.07;3.97;;;27.20;1.00;;;-143.32;68.71;55438.91;6128095;23;20403;-87
2021/06/17 21:19:08;;;;;;;7.40;3.57;;;27.10;1.00;;;-143.32;69.43;55451.03;6127646;23;20470;-88